sensor_id;sensor_type;location;lat;lon;timestamp;P1;durP1;ratioP1;P2;durP2;ratioP2
54502;SDS011;40411;50.090;21.954;2022-08-19T00:00:20;36.80;;;25.33;;
54502;SDS011;40411;50.090;21.954;2022-08-19T00:03:02;39.08;;;24.65;;
54502;SDS011;40411;50.090;21.954;2022-08-19T00:05:29;30.67;;;22.27;;
54502;SDS011;40411;50.090;21.954;2022-08-19T00:07:56;30.95;;;23.02;;
54502;SDS011;40411;50.090;21.954;2022-08-19T00:10:23;33.13;;;22.05;;
54502;SDS011;40411;50.090;21.954;2022-08-19T00:12:50;33.25;;;22.10;;
54502;SDS011;40411;50.090;21.954;2022-08-19T00:15:18;32.00;;;23.45;;
54502;SDS011;40411;50.090;21.954;2022-08-19T00:17:45;32.67;;;22.35;;
54502;SDS011;40411;50.090;21.954;2022-08-19T00:20:13;39.15;;;24.70;;
54502;SDS011;40411;50.090;21.954;2022-08-19T00:22:43;36.05;;;24.33;;
54502;SDS011;40411;50.090;21.954;2022-08-19T00:25:10;38.13;;;25.90;;
54502;SDS011;40411;50.090;21.954;2022-08-19T00:27:36;36.05;;;26.02;;
54502;SDS011;40411;50.090;21.954;2022-08-19T00:30:03;35.47;;;25.05;;
54502;SDS011;40411;50.090;21.954;2022-08-19T00:32:30;44.30;;;25.85;;
54502;SDS011;40411;50.090;21.954;2022-08-19T00:34:56;33.33;;;24.40;;
54502;SDS011;40411;50.090;21.954;2022-08-19T00:37:22;39.83;;;26.00;;
54502;SDS011;40411;50.090;21.954;2022-08-19T00:39:50;35.10;;;24.63;;
54502;SDS011;40411;50.090;21.954;2022-08-19T00:42:18;40.85;;;26.60;;
54502;SDS011;40411;50.090;21.954;2022-08-19T00:44:45;39.70;;;26.13;;
54502;SDS011;40411;50.090;21.954;2022-08-19T00:47:11;39.00;;;24.58;;
54502;SDS011;40411;50.090;21.954;2022-08-19T00:49:40;40.35;;;25.25;;
54502;SDS011;40411;50.090;21.954;2022-08-19T00:52:15;34.97;;;24.88;;
54502;SDS011;40411;50.090;21.954;2022-08-19T00:54:45;40.53;;;25.77;;
54502;SDS011;40411;50.090;21.954;2022-08-19T00:57:14;37.83;;;25.67;;
54502;SDS011;40411;50.090;21.954;2022-08-19T00:59:42;44.20;;;28.42;;
54502;SDS011;40411;50.090;21.954;2022-08-19T01:02:11;49.97;;;29.02;;
54502;SDS011;40411;50.090;21.954;2022-08-19T01:04:38;37.65;;;25.77;;
54502;SDS011;40411;50.090;21.954;2022-08-19T01:07:03;37.53;;;25.08;;
54502;SDS011;40411;50.090;21.954;2022-08-19T01:09:30;47.05;;;30.85;;
54502;SDS011;40411;50.090;21.954;2022-08-19T01:11:56;46.33;;;30.50;;
54502;SDS011;40411;50.090;21.954;2022-08-19T01:14:22;43.10;;;27.50;;
54502;SDS011;40411;50.090;21.954;2022-08-19T01:16:49;42.75;;;28.05;;
54502;SDS011;40411;50.090;21.954;2022-08-19T01:19:27;41.28;;;27.88;;
54502;SDS011;40411;50.090;21.954;2022-08-19T01:22:31;40.63;;;26.50;;
54502;SDS011;40411;50.090;21.954;2022-08-19T01:24:50;38.92;;;26.52;;
54502;SDS011;40411;50.090;21.954;2022-08-19T01:27:17;45.65;;;28.45;;
54502;SDS011;40411;50.090;21.954;2022-08-19T01:29:43;39.15;;;27.83;;
54502;SDS011;40411;50.090;21.954;2022-08-19T01:32:11;46.67;;;29.58;;
54502;SDS011;40411;50.090;21.954;2022-08-19T01:34:41;51.28;;;31.52;;
54502;SDS011;40411;50.090;21.954;2022-08-19T01:37:11;51.80;;;34.75;;
54502;SDS011;40411;50.090;21.954;2022-08-19T01:39:38;59.35;;;35.75;;
54502;SDS011;40411;50.090;21.954;2022-08-19T01:42:06;69.03;;;36.42;;
54502;SDS011;40411;50.090;21.954;2022-08-19T01:44:36;68.20;;;38.22;;
54502;SDS011;40411;50.090;21.954;2022-08-19T01:47:04;75.70;;;39.38;;
54502;SDS011;40411;50.090;21.954;2022-08-19T01:49:30;67.45;;;37.58;;
54502;SDS011;40411;50.090;21.954;2022-08-19T01:51:56;72.72;;;39.55;;
54502;SDS011;40411;50.090;21.954;2022-08-19T01:54:23;81.63;;;43.50;;
54502;SDS011;40411;50.090;21.954;2022-08-19T01:56:53;90.03;;;42.03;;
54502;SDS011;40411;50.090;21.954;2022-08-19T01:59:23;70.18;;;37.58;;
54502;SDS011;40411;50.090;21.954;2022-08-19T02:01:49;74.45;;;42.20;;
54502;SDS011;40411;50.090;21.954;2022-08-19T02:04:15;96.68;;;43.80;;
54502;SDS011;40411;50.090;21.954;2022-08-19T02:06:41;79.38;;;45.17;;
54502;SDS011;40411;50.090;21.954;2022-08-19T02:09:07;82.68;;;42.60;;
54502;SDS011;40411;50.090;21.954;2022-08-19T02:11:34;76.63;;;41.95;;
54502;SDS011;40411;50.090;21.954;2022-08-19T02:14:03;84.85;;;43.33;;
54502;SDS011;40411;50.090;21.954;2022-08-19T02:16:32;79.03;;;41.47;;
54502;SDS011;40411;50.090;21.954;2022-08-19T02:18:59;75.97;;;43.15;;
54502;SDS011;40411;50.090;21.954;2022-08-19T02:21:28;77.30;;;42.00;;
54502;SDS011;40411;50.090;21.954;2022-08-19T02:23:55;67.53;;;40.55;;
54502;SDS011;40411;50.090;21.954;2022-08-19T02:26:21;73.78;;;40.78;;
54502;SDS011;40411;50.090;21.954;2022-08-19T02:28:47;69.30;;;37.15;;
54502;SDS011;40411;50.090;21.954;2022-08-19T02:31:15;65.65;;;37.97;;
54502;SDS011;40411;50.090;21.954;2022-08-19T02:33:43;62.97;;;37.20;;
54502;SDS011;40411;50.090;21.954;2022-08-19T02:36:10;62.78;;;37.13;;
54502;SDS011;40411;50.090;21.954;2022-08-19T02:38:38;71.60;;;38.25;;
54502;SDS011;40411;50.090;21.954;2022-08-19T02:41:12;61.97;;;36.70;;
54502;SDS011;40411;50.090;21.954;2022-08-19T02:43:40;60.45;;;36.05;;
54502;SDS011;40411;50.090;21.954;2022-08-19T02:46:21;62.95;;;35.50;;
54502;SDS011;40411;50.090;21.954;2022-08-19T02:48:50;51.50;;;34.60;;
54502;SDS011;40411;50.090;21.954;2022-08-19T02:51:23;56.20;;;33.88;;
54502;SDS011;40411;50.090;21.954;2022-08-19T02:53:51;51.92;;;34.83;;
54502;SDS011;40411;50.090;21.954;2022-08-19T02:56:17;50.20;;;35.00;;
54502;SDS011;40411;50.090;21.954;2022-08-19T02:58:44;51.08;;;31.42;;
54502;SDS011;40411;50.090;21.954;2022-08-19T03:01:10;55.40;;;34.35;;
54502;SDS011;40411;50.090;21.954;2022-08-19T03:03:37;47.63;;;32.58;;
54502;SDS011;40411;50.090;21.954;2022-08-19T03:06:11;52.38;;;32.58;;
54502;SDS011;40411;50.090;21.954;2022-08-19T03:08:40;55.47;;;34.40;;
54502;SDS011;40411;50.090;21.954;2022-08-19T03:11:14;55.35;;;33.92;;
54502;SDS011;40411;50.090;21.954;2022-08-19T03:13:42;55.22;;;33.28;;
54502;SDS011;40411;50.090;21.954;2022-08-19T03:16:09;51.00;;;32.97;;
54502;SDS011;40411;50.090;21.954;2022-08-19T03:18:36;51.38;;;32.20;;
54502;SDS011;40411;50.090;21.954;2022-08-19T03:21:02;48.10;;;33.40;;
54502;SDS011;40411;50.090;21.954;2022-08-19T03:23:28;47.80;;;31.80;;
54502;SDS011;40411;50.090;21.954;2022-08-19T03:25:54;42.75;;;30.55;;
54502;SDS011;40411;50.090;21.954;2022-08-19T03:28:20;60.38;;;31.65;;
54502;SDS011;40411;50.090;21.954;2022-08-19T03:33:49;45.05;;;29.55;;
54502;SDS011;40411;50.090;21.954;2022-08-19T03:36:20;45.53;;;31.27;;
54502;SDS011;40411;50.090;21.954;2022-08-19T03:38:51;44.58;;;30.13;;
54502;SDS011;40411;50.090;21.954;2022-08-19T03:41:21;51.67;;;30.15;;
54502;SDS011;40411;50.090;21.954;2022-08-19T03:43:49;47.55;;;31.42;;
54502;SDS011;40411;50.090;21.954;2022-08-19T03:46:16;43.88;;;30.88;;
54502;SDS011;40411;50.090;21.954;2022-08-19T03:48:46;48.63;;;31.40;;
54502;SDS011;40411;50.090;21.954;2022-08-19T03:51:24;45.35;;;30.98;;
54502;SDS011;40411;50.090;21.954;2022-08-19T03:53:52;43.35;;;30.38;;
54502;SDS011;40411;50.090;21.954;2022-08-19T03:56:19;50.08;;;29.52;;
54502;SDS011;40411;50.090;21.954;2022-08-19T03:58:46;49.50;;;30.45;;
54502;SDS011;40411;50.090;21.954;2022-08-19T04:01:14;40.88;;;28.08;;
54502;SDS011;40411;50.090;21.954;2022-08-19T04:03:43;40.55;;;27.58;;
54502;SDS011;40411;50.090;21.954;2022-08-19T04:06:14;46.10;;;29.27;;
54502;SDS011;40411;50.090;21.954;2022-08-19T04:08:42;46.38;;;29.27;;
54502;SDS011;40411;50.090;21.954;2022-08-19T04:11:13;48.53;;;29.50;;
54502;SDS011;40411;50.090;21.954;2022-08-19T04:13:41;37.95;;;27.35;;
54502;SDS011;40411;50.090;21.954;2022-08-19T04:16:08;43.45;;;28.02;;
54502;SDS011;40411;50.090;21.954;2022-08-19T04:18:36;43.25;;;28.90;;
54502;SDS011;40411;50.090;21.954;2022-08-19T04:21:02;41.58;;;29.27;;
54502;SDS011;40411;50.090;21.954;2022-08-19T04:23:29;40.90;;;27.42;;
54502;SDS011;40411;50.090;21.954;2022-08-19T04:25:55;41.50;;;26.83;;
54502;SDS011;40411;50.090;21.954;2022-08-19T04:28:22;38.13;;;27.48;;
54502;SDS011;40411;50.090;21.954;2022-08-19T04:30:51;42.90;;;26.42;;
54502;SDS011;40411;50.090;21.954;2022-08-19T04:33:19;35.55;;;26.40;;
54502;SDS011;40411;50.090;21.954;2022-08-19T04:35:51;38.03;;;26.05;;
54502;SDS011;40411;50.090;21.954;2022-08-19T04:38:19;35.97;;;23.77;;
54502;SDS011;40411;50.090;21.954;2022-08-19T04:40:48;33.10;;;24.70;;
54502;SDS011;40411;50.090;21.954;2022-08-19T04:43:36;40.30;;;24.50;;
54502;SDS011;40411;50.090;21.954;2022-08-19T04:46:07;34.88;;;23.92;;
54502;SDS011;40411;50.090;21.954;2022-08-19T04:48:35;30.83;;;22.45;;
54502;SDS011;40411;50.090;21.954;2022-08-19T04:51:05;34.20;;;22.63;;
54502;SDS011;40411;50.090;21.954;2022-08-19T04:53:33;38.95;;;22.23;;
54502;SDS011;40411;50.090;21.954;2022-08-19T04:56:03;30.67;;;22.23;;
54502;SDS011;40411;50.090;21.954;2022-08-19T04:58:32;32.22;;;22.15;;
54502;SDS011;40411;50.090;21.954;2022-08-19T05:00:59;28.30;;;21.40;;
54502;SDS011;40411;50.090;21.954;2022-08-19T05:03:28;29.73;;;20.65;;
54502;SDS011;40411;50.090;21.954;2022-08-19T05:05:56;31.35;;;22.15;;
54502;SDS011;40411;50.090;21.954;2022-08-19T05:08:22;31.10;;;20.70;;
54502;SDS011;40411;50.090;21.954;2022-08-19T05:10:49;26.05;;;19.17;;
54502;SDS011;40411;50.090;21.954;2022-08-19T05:13:17;26.40;;;20.20;;
54502;SDS011;40411;50.090;21.954;2022-08-19T05:15:55;31.88;;;20.70;;
54502;SDS011;40411;50.090;21.954;2022-08-19T05:18:23;29.05;;;18.05;;
54502;SDS011;40411;50.090;21.954;2022-08-19T05:21:08;27.70;;;18.55;;
54502;SDS011;40411;50.090;21.954;2022-08-19T05:23:56;27.33;;;19.83;;
54502;SDS011;40411;50.090;21.954;2022-08-19T05:26:23;26.95;;;17.40;;
54502;SDS011;40411;50.090;21.954;2022-08-19T05:28:54;26.58;;;18.77;;
54502;SDS011;40411;50.090;21.954;2022-08-19T05:31:21;24.70;;;17.95;;
54502;SDS011;40411;50.090;21.954;2022-08-19T05:33:47;28.33;;;16.65;;
54502;SDS011;40411;50.090;21.954;2022-08-19T05:36:13;21.52;;;15.80;;
54502;SDS011;40411;50.090;21.954;2022-08-19T05:38:39;23.20;;;16.52;;
54502;SDS011;40411;50.090;21.954;2022-08-19T05:41:09;23.55;;;15.88;;
54502;SDS011;40411;50.090;21.954;2022-08-19T05:43:36;22.90;;;15.13;;
54502;SDS011;40411;50.090;21.954;2022-08-19T05:46:03;27.50;;;15.68;;
54502;SDS011;40411;50.090;21.954;2022-08-19T05:48:34;22.10;;;15.23;;
54502;SDS011;40411;50.090;21.954;2022-08-19T05:51:04;26.80;;;15.30;;
54502;SDS011;40411;50.090;21.954;2022-08-19T05:53:32;25.17;;;15.27;;
54502;SDS011;40411;50.090;21.954;2022-08-19T05:56:08;22.05;;;15.45;;
54502;SDS011;40411;50.090;21.954;2022-08-19T05:58:38;23.10;;;14.93;;
54502;SDS011;40411;50.090;21.954;2022-08-19T06:01:09;21.63;;;14.68;;
54502;SDS011;40411;50.090;21.954;2022-08-19T06:03:37;21.35;;;12.18;;
54502;SDS011;40411;50.090;21.954;2022-08-19T06:06:06;23.10;;;13.93;;
54502;SDS011;40411;50.090;21.954;2022-08-19T06:08:33;19.50;;;15.15;;
54502;SDS011;40411;50.090;21.954;2022-08-19T06:13:48;20.08;;;14.23;;
54502;SDS011;40411;50.090;21.954;2022-08-19T06:16:17;23.33;;;13.50;;
54502;SDS011;40411;50.090;21.954;2022-08-19T06:18:51;22.30;;;13.23;;
54502;SDS011;40411;50.090;21.954;2022-08-19T06:21:19;22.27;;;13.48;;
54502;SDS011;40411;50.090;21.954;2022-08-19T06:23:47;19.30;;;13.10;;
54502;SDS011;40411;50.090;21.954;2022-08-19T06:26:14;24.02;;;13.85;;
54502;SDS011;40411;50.090;21.954;2022-08-19T06:28:41;22.60;;;13.40;;
54502;SDS011;40411;50.090;21.954;2022-08-19T06:31:10;15.93;;;10.95;;
54502;SDS011;40411;50.090;21.954;2022-08-19T06:33:38;17.92;;;11.80;;
54502;SDS011;40411;50.090;21.954;2022-08-19T06:36:05;17.25;;;11.38;;
54502;SDS011;40411;50.090;21.954;2022-08-19T06:38:31;21.83;;;11.27;;
54502;SDS011;40411;50.090;21.954;2022-08-19T06:41:05;13.93;;;10.75;;
54502;SDS011;40411;50.090;21.954;2022-08-19T06:43:31;19.88;;;11.32;;
54502;SDS011;40411;50.090;21.954;2022-08-19T06:45:57;20.60;;;11.73;;
54502;SDS011;40411;50.090;21.954;2022-08-19T06:48:24;16.95;;;11.38;;
54502;SDS011;40411;50.090;21.954;2022-08-19T06:50:50;16.67;;;11.35;;
54502;SDS011;40411;50.090;21.954;2022-08-19T06:53:17;16.05;;;10.27;;
54502;SDS011;40411;50.090;21.954;2022-08-19T06:55:44;13.40;;;9.88;;
54502;SDS011;40411;50.090;21.954;2022-08-19T06:58:11;14.95;;;9.48;;
54502;SDS011;40411;50.090;21.954;2022-08-19T07:00:36;18.48;;;9.93;;
54502;SDS011;40411;50.090;21.954;2022-08-19T07:03:02;15.55;;;9.82;;
54502;SDS011;40411;50.090;21.954;2022-08-19T07:05:28;16.75;;;9.15;;
54502;SDS011;40411;50.090;21.954;2022-08-19T07:07:54;16.27;;;9.23;;
54502;SDS011;40411;50.090;21.954;2022-08-19T07:10:20;14.25;;;9.40;;
54502;SDS011;40411;50.090;21.954;2022-08-19T07:12:46;18.30;;;9.55;;
54502;SDS011;40411;50.090;21.954;2022-08-19T07:15:14;25.67;;;9.52;;
54502;SDS011;40411;50.090;21.954;2022-08-19T07:17:41;17.33;;;10.05;;
54502;SDS011;40411;50.090;21.954;2022-08-19T07:20:09;17.50;;;9.98;;
54502;SDS011;40411;50.090;21.954;2022-08-19T07:22:37;15.32;;;9.50;;
54502;SDS011;40411;50.090;21.954;2022-08-19T07:25:03;15.05;;;8.95;;
54502;SDS011;40411;50.090;21.954;2022-08-19T07:27:32;17.45;;;8.25;;
54502;SDS011;40411;50.090;21.954;2022-08-19T07:29:59;19.25;;;8.27;;
54502;SDS011;40411;50.090;21.954;2022-08-19T07:32:25;14.82;;;8.20;;
54502;SDS011;40411;50.090;21.954;2022-08-19T07:34:52;10.73;;;6.50;;
54502;SDS011;40411;50.090;21.954;2022-08-19T07:37:18;13.15;;;6.95;;
54502;SDS011;40411;50.090;21.954;2022-08-19T07:39:43;10.68;;;6.80;;
54502;SDS011;40411;50.090;21.954;2022-08-19T07:42:11;15.57;;;6.65;;
54502;SDS011;40411;50.090;21.954;2022-08-19T07:44:39;13.15;;;6.70;;
54502;SDS011;40411;50.090;21.954;2022-08-19T07:47:05;11.32;;;6.45;;
54502;SDS011;40411;50.090;21.954;2022-08-19T07:49:32;12.13;;;6.70;;
54502;SDS011;40411;50.090;21.954;2022-08-19T07:52:01;12.85;;;6.47;;
54502;SDS011;40411;50.090;21.954;2022-08-19T07:54:32;8.73;;;5.70;;
54502;SDS011;40411;50.090;21.954;2022-08-19T07:57:00;11.75;;;5.85;;
54502;SDS011;40411;50.090;21.954;2022-08-19T07:59:27;14.68;;;5.90;;
54502;SDS011;40411;50.090;21.954;2022-08-19T08:01:54;9.77;;;5.80;;
54502;SDS011;40411;50.090;21.954;2022-08-19T08:04:21;11.32;;;5.82;;
54502;SDS011;40411;50.090;21.954;2022-08-19T08:07:05;12.27;;;5.70;;
54502;SDS011;40411;50.090;21.954;2022-08-19T08:09:52;9.80;;;5.07;;
54502;SDS011;40411;50.090;21.954;2022-08-19T08:12:20;11.63;;;5.50;;
54502;SDS011;40411;50.090;21.954;2022-08-19T08:14:55;20.58;;;6.45;;
54502;SDS011;40411;50.090;21.954;2022-08-19T08:17:26;12.93;;;5.93;;
54502;SDS011;40411;50.090;21.954;2022-08-19T08:19:53;9.07;;;6.03;;
54502;SDS011;40411;50.090;21.954;2022-08-19T08:22:20;11.05;;;5.65;;
54502;SDS011;40411;50.090;21.954;2022-08-19T08:25:10;9.13;;;5.80;;
54502;SDS011;40411;50.090;21.954;2022-08-19T08:27:42;11.95;;;5.15;;
54502;SDS011;40411;50.090;21.954;2022-08-19T08:30:16;10.18;;;5.82;;
54502;SDS011;40411;50.090;21.954;2022-08-19T08:32:47;11.50;;;6.07;;
54502;SDS011;40411;50.090;21.954;2022-08-19T08:35:15;8.90;;;5.50;;
54502;SDS011;40411;50.090;21.954;2022-08-19T08:37:43;14.05;;;5.55;;
54502;SDS011;40411;50.090;21.954;2022-08-19T08:40:18;9.00;;;5.68;;
54502;SDS011;40411;50.090;21.954;2022-08-19T08:43:37;9.55;;;5.43;;
54502;SDS011;40411;50.090;21.954;2022-08-19T08:47:01;9.82;;;5.50;;
54502;SDS011;40411;50.090;21.954;2022-08-19T08:48:57;8.60;;;5.00;;
54502;SDS011;40411;50.090;21.954;2022-08-19T08:51:32;11.00;;;5.80;;
54502;SDS011;40411;50.090;21.954;2022-08-19T08:54:01;7.85;;;4.90;;
54502;SDS011;40411;50.090;21.954;2022-08-19T08:56:32;13.15;;;5.55;;
54502;SDS011;40411;50.090;21.954;2022-08-19T08:59:04;11.82;;;5.70;;
54502;SDS011;40411;50.090;21.954;2022-08-19T09:01:35;7.70;;;5.43;;
54502;SDS011;40411;50.090;21.954;2022-08-19T09:04:05;11.23;;;5.40;;
54502;SDS011;40411;50.090;21.954;2022-08-19T09:06:37;11.80;;;5.22;;
54502;SDS011;40411;50.090;21.954;2022-08-19T09:09:13;8.25;;;5.55;;
54502;SDS011;40411;50.090;21.954;2022-08-19T09:17:00;8.05;;;5.22;;
54502;SDS011;40411;50.090;21.954;2022-08-19T09:19:29;7.93;;;5.40;;
54502;SDS011;40411;50.090;21.954;2022-08-19T09:21:56;9.10;;;5.55;;
54502;SDS011;40411;50.090;21.954;2022-08-19T09:24:22;13.15;;;5.57;;
54502;SDS011;40411;50.090;21.954;2022-08-19T09:26:47;10.52;;;5.85;;
54502;SDS011;40411;50.090;21.954;2022-08-19T09:29:13;11.63;;;5.88;;
54502;SDS011;40411;50.090;21.954;2022-08-19T09:31:39;13.98;;;6.28;;
54502;SDS011;40411;50.090;21.954;2022-08-19T09:34:05;10.05;;;5.57;;
54502;SDS011;40411;50.090;21.954;2022-08-19T09:36:31;10.02;;;5.82;;
54502;SDS011;40411;50.090;21.954;2022-08-19T09:39:04;8.85;;;5.20;;
54502;SDS011;40411;50.090;21.954;2022-08-19T09:41:31;11.90;;;5.28;;
54502;SDS011;40411;50.090;21.954;2022-08-19T09:43:58;12.55;;;6.00;;
54502;SDS011;40411;50.090;21.954;2022-08-19T09:46:25;8.48;;;5.43;;
54502;SDS011;40411;50.090;21.954;2022-08-19T09:48:53;7.40;;;5.10;;
54502;SDS011;40411;50.090;21.954;2022-08-19T09:51:22;8.73;;;5.32;;
54502;SDS011;40411;50.090;21.954;2022-08-19T09:53:50;12.38;;;5.60;;
54502;SDS011;40411;50.090;21.954;2022-08-19T09:56:19;11.85;;;5.47;;
54502;SDS011;40411;50.090;21.954;2022-08-19T09:58:46;8.13;;;5.57;;
54502;SDS011;40411;50.090;21.954;2022-08-19T10:01:17;6.60;;;4.90;;
54502;SDS011;40411;50.090;21.954;2022-08-19T10:03:52;8.50;;;5.05;;
54502;SDS011;40411;50.090;21.954;2022-08-19T10:08:47;9.02;;;5.10;;
54502;SDS011;40411;50.090;21.954;2022-08-19T10:11:13;9.93;;;5.28;;
54502;SDS011;40411;50.090;21.954;2022-08-19T10:13:41;8.70;;;4.82;;
54502;SDS011;40411;50.090;21.954;2022-08-19T10:16:11;9.50;;;5.53;;
54502;SDS011;40411;50.090;21.954;2022-08-19T10:18:44;9.52;;;5.40;;
54502;SDS011;40411;50.090;21.954;2022-08-19T10:21:14;10.70;;;5.70;;
54502;SDS011;40411;50.090;21.954;2022-08-19T10:23:55;12.23;;;5.40;;
54502;SDS011;40411;50.090;21.954;2022-08-19T10:26:24;12.70;;;5.20;;
54502;SDS011;40411;50.090;21.954;2022-08-19T10:28:55;8.35;;;5.13;;
54502;SDS011;40411;50.090;21.954;2022-08-19T10:31:23;8.80;;;4.50;;
54502;SDS011;40411;50.090;21.954;2022-08-19T10:33:51;8.55;;;5.20;;
54502;SDS011;40411;50.090;21.954;2022-08-19T10:38:51;9.10;;;5.32;;
54502;SDS011;40411;50.090;21.954;2022-08-19T10:41:19;10.52;;;5.13;;
54502;SDS011;40411;50.090;21.954;2022-08-19T10:43:50;13.43;;;5.25;;
54502;SDS011;40411;50.090;21.954;2022-08-19T10:46:20;8.80;;;5.50;;
54502;SDS011;40411;50.090;21.954;2022-08-19T10:48:47;8.07;;;5.00;;
54502;SDS011;40411;50.090;21.954;2022-08-19T10:51:13;7.00;;;4.50;;
54502;SDS011;40411;50.090;21.954;2022-08-19T10:53:58;8.50;;;4.10;;
54502;SDS011;40411;50.090;21.954;2022-08-19T10:56:25;7.18;;;5.00;;
54502;SDS011;40411;50.090;21.954;2022-08-19T10:59:10;14.82;;;4.45;;
54502;SDS011;40411;50.090;21.954;2022-08-19T11:01:39;13.93;;;4.47;;
54502;SDS011;40411;50.090;21.954;2022-08-19T11:04:06;7.55;;;4.55;;
54502;SDS011;40411;50.090;21.954;2022-08-19T11:06:37;9.82;;;4.90;;
54502;SDS011;40411;50.090;21.954;2022-08-19T11:09:04;9.27;;;4.47;;
54502;SDS011;40411;50.090;21.954;2022-08-19T11:11:31;10.05;;;4.53;;
54502;SDS011;40411;50.090;21.954;2022-08-19T11:13:58;10.30;;;4.70;;
54502;SDS011;40411;50.090;21.954;2022-08-19T11:16:25;9.57;;;4.60;;
54502;SDS011;40411;50.090;21.954;2022-08-19T11:18:57;8.05;;;4.30;;
54502;SDS011;40411;50.090;21.954;2022-08-19T11:23:52;11.48;;;4.75;;
54502;SDS011;40411;50.090;21.954;2022-08-19T11:26:20;9.32;;;4.30;;
54502;SDS011;40411;50.090;21.954;2022-08-19T11:28:49;13.55;;;4.75;;
54502;SDS011;40411;50.090;21.954;2022-08-19T11:31:18;8.75;;;4.78;;
54502;SDS011;40411;50.090;21.954;2022-08-19T11:33:45;12.25;;;5.13;;
54502;SDS011;40411;50.090;21.954;2022-08-19T11:36:16;7.63;;;4.15;;
54502;SDS011;40411;50.090;21.954;2022-08-19T11:38:43;10.32;;;4.28;;
54502;SDS011;40411;50.090;21.954;2022-08-19T11:41:10;8.80;;;4.55;;
54502;SDS011;40411;50.090;21.954;2022-08-19T11:43:36;8.27;;;4.03;;
54502;SDS011;40411;50.090;21.954;2022-08-19T11:46:06;10.98;;;4.50;;
54502;SDS011;40411;50.090;21.954;2022-08-19T11:48:33;8.48;;;4.30;;
54502;SDS011;40411;50.090;21.954;2022-08-19T11:51:03;9.13;;;4.07;;
54502;SDS011;40411;50.090;21.954;2022-08-19T11:53:31;9.80;;;4.05;;
54502;SDS011;40411;50.090;21.954;2022-08-19T11:55:57;8.93;;;3.80;;
54502;SDS011;40411;50.090;21.954;2022-08-19T11:58:24;11.27;;;4.32;;
54502;SDS011;40411;50.090;21.954;2022-08-19T12:00:51;8.30;;;4.53;;
54502;SDS011;40411;50.090;21.954;2022-08-19T12:03:17;11.48;;;4.22;;
54502;SDS011;40411;50.090;21.954;2022-08-19T12:05:44;13.45;;;4.80;;
54502;SDS011;40411;50.090;21.954;2022-08-19T12:08:11;10.00;;;4.32;;
54502;SDS011;40411;50.090;21.954;2022-08-19T12:10:38;9.75;;;4.25;;
54502;SDS011;40411;50.090;21.954;2022-08-19T12:13:05;12.30;;;4.93;;
54502;SDS011;40411;50.090;21.954;2022-08-19T12:15:38;11.13;;;4.40;;
54502;SDS011;40411;50.090;21.954;2022-08-19T12:18:06;11.38;;;4.70;;
54502;SDS011;40411;50.090;21.954;2022-08-19T12:20:35;14.18;;;4.82;;
54502;SDS011;40411;50.090;21.954;2022-08-19T12:23:02;10.57;;;4.53;;
54502;SDS011;40411;50.090;21.954;2022-08-19T12:25:28;9.13;;;4.45;;
54502;SDS011;40411;50.090;21.954;2022-08-19T12:27:54;10.20;;;4.15;;
54502;SDS011;40411;50.090;21.954;2022-08-19T12:30:20;12.73;;;4.30;;
54502;SDS011;40411;50.090;21.954;2022-08-19T12:32:46;10.27;;;4.22;;
54502;SDS011;40411;50.090;21.954;2022-08-19T12:35:12;7.70;;;3.75;;
54502;SDS011;40411;50.090;21.954;2022-08-19T12:37:38;7.57;;;3.88;;
54502;SDS011;40411;50.090;21.954;2022-08-19T12:40:10;9.17;;;4.10;;
54502;SDS011;40411;50.090;21.954;2022-08-19T12:42:37;11.70;;;5.15;;
54502;SDS011;40411;50.090;21.954;2022-08-19T12:45:08;11.18;;;4.57;;
54502;SDS011;40411;50.090;21.954;2022-08-19T12:47:38;7.07;;;3.92;;
54502;SDS011;40411;50.090;21.954;2022-08-19T12:50:05;6.55;;;4.05;;
54502;SDS011;40411;50.090;21.954;2022-08-19T12:52:34;11.20;;;4.72;;
54502;SDS011;40411;50.090;21.954;2022-08-19T12:55:05;10.48;;;4.93;;
54502;SDS011;40411;50.090;21.954;2022-08-19T12:57:32;8.40;;;4.40;;
54502;SDS011;40411;50.090;21.954;2022-08-19T13:02:31;7.75;;;4.32;;
54502;SDS011;40411;50.090;21.954;2022-08-19T13:04:57;8.95;;;5.28;;
54502;SDS011;40411;50.090;21.954;2022-08-19T13:07:23;11.77;;;3.92;;
54502;SDS011;40411;50.090;21.954;2022-08-19T13:09:51;15.18;;;4.07;;
54502;SDS011;40411;50.090;21.954;2022-08-19T13:12:17;9.55;;;4.28;;
54502;SDS011;40411;50.090;21.954;2022-08-19T13:14:46;9.65;;;3.90;;
54502;SDS011;40411;50.090;21.954;2022-08-19T13:17:16;9.10;;;4.20;;
54502;SDS011;40411;50.090;21.954;2022-08-19T13:19:42;8.52;;;4.10;;
54502;SDS011;40411;50.090;21.954;2022-08-19T13:22:08;7.88;;;3.78;;
54502;SDS011;40411;50.090;21.954;2022-08-19T13:24:33;14.15;;;5.13;;
54502;SDS011;40411;50.090;21.954;2022-08-19T13:27:00;10.98;;;4.38;;
54502;SDS011;40411;50.090;21.954;2022-08-19T13:29:26;9.90;;;4.10;;
54502;SDS011;40411;50.090;21.954;2022-08-19T13:32:11;10.85;;;4.03;;
54502;SDS011;40411;50.090;21.954;2022-08-19T13:34:55;10.45;;;4.25;;
54502;SDS011;40411;50.090;21.954;2022-08-19T13:37:21;12.27;;;4.40;;
54502;SDS011;40411;50.090;21.954;2022-08-19T13:40:07;10.32;;;4.50;;
54502;SDS011;40411;50.090;21.954;2022-08-19T13:42:41;16.60;;;4.53;;
54502;SDS011;40411;50.090;21.954;2022-08-19T13:45:09;11.20;;;4.10;;
54502;SDS011;40411;50.090;21.954;2022-08-19T13:47:36;13.25;;;4.55;;
54502;SDS011;40411;50.090;21.954;2022-08-19T13:50:08;11.70;;;4.10;;
54502;SDS011;40411;50.090;21.954;2022-08-19T13:52:36;12.35;;;4.28;;
54502;SDS011;40411;50.090;21.954;2022-08-19T13:55:03;10.27;;;4.05;;
54502;SDS011;40411;50.090;21.954;2022-08-19T13:57:30;11.25;;;4.03;;
54502;SDS011;40411;50.090;21.954;2022-08-19T13:59:57;8.13;;;3.67;;
54502;SDS011;40411;50.090;21.954;2022-08-19T14:02:23;8.50;;;4.68;;
54502;SDS011;40411;50.090;21.954;2022-08-19T14:04:50;10.68;;;4.15;;
54502;SDS011;40411;50.090;21.954;2022-08-19T14:07:16;11.63;;;4.68;;
54502;SDS011;40411;50.090;21.954;2022-08-19T14:09:41;9.23;;;4.85;;
54502;SDS011;40411;50.090;21.954;2022-08-19T14:12:08;12.18;;;4.20;;
54502;SDS011;40411;50.090;21.954;2022-08-19T14:14:37;11.02;;;3.85;;
54502;SDS011;40411;50.090;21.954;2022-08-19T14:17:07;15.73;;;4.95;;
54502;SDS011;40411;50.090;21.954;2022-08-19T14:19:34;9.88;;;4.38;;
54502;SDS011;40411;50.090;21.954;2022-08-19T14:22:01;8.77;;;4.10;;
54502;SDS011;40411;50.090;21.954;2022-08-19T14:24:27;10.27;;;4.30;;
54502;SDS011;40411;50.090;21.954;2022-08-19T14:26:53;12.10;;;5.25;;
54502;SDS011;40411;50.090;21.954;2022-08-19T14:29:18;9.90;;;4.10;;
54502;SDS011;40411;50.090;21.954;2022-08-19T14:31:44;11.30;;;5.25;;
54502;SDS011;40411;50.090;21.954;2022-08-19T14:34:10;10.25;;;5.10;;
54502;SDS011;40411;50.090;21.954;2022-08-19T14:36:37;12.10;;;4.38;;
54502;SDS011;40411;50.090;21.954;2022-08-19T14:39:03;13.10;;;4.93;;
54502;SDS011;40411;50.090;21.954;2022-08-19T14:41:30;10.93;;;3.50;;
54502;SDS011;40411;50.090;21.954;2022-08-19T14:43:56;147.57;;;10.23;;
54502;SDS011;40411;50.090;21.954;2022-08-19T14:46:24;8.60;;;4.63;;
54502;SDS011;40411;50.090;21.954;2022-08-19T14:48:52;12.35;;;4.38;;